Overview Statistics Trail Chart Weather Telemetry Raw packets
 

This is the latest recevied weather packets stored in our database for station/object PP5KJ-13. If no packets are shown the sender has not sent any weather packets the latest 10 day(s).

<< 25 26 27 28 29 30 31 >>
Time Temp. Humidity Pressure Rain* Wind** Luminosity Snow
1788280270 25.56° C 5% 1011 hPa 0 mm 8.94 m/s, 190° - -
1788279670 25.56° C 5% 1011 hPa 0 mm 8.94 m/s, 190° - -
1788279070 25.56° C 5% 1011 hPa 0 mm 8.94 m/s, 190° - -
1788278471 24.44° C 5% 1011 hPa 0 mm 7.6 m/s, 190° - -
1788277869 23.89° C 5% 1011 hPa 0 mm 7.6 m/s, 190° - -
1788277269 23.33° C 5% 1011 hPa 0 mm 7.6 m/s, 190° - -
1788276669 23.89° C 5% 1011 hPa 0 mm 7.6 m/s, 190° - -
1788276069 23.33° C 5% 1011 hPa 0 mm 7.6 m/s, 190° - -
1788275469 23.89° C 5% 1011 hPa 0 mm 7.6 m/s, 190° - -
1788274869 24.44° C 5% 1011 hPa 0 mm 4.02 m/s, 190° - -
1788274269 24.44° C 5% 1011 hPa 0 mm 4.02 m/s, 190° - -
1788273669 23.89° C 5% 1011 hPa 0 mm 4.02 m/s, 190° - -
1788272469 22.78° C 5% 1011 hPa 0.25 mm 3.58 m/s, 216° - -
1788271869 23.33° C 5% 1011 hPa 0.25 mm 4.02 m/s, 190° - -
1788271261 22.78° C 5% 1011 hPa 0.25 mm 3.13 m/s, 0° - -
1788270661 22.22° C 5% 1011 hPa 0.25 mm 3.13 m/s, 0° - -
1788270061 22.22° C 5% 1011 hPa 0.25 mm 3.13 m/s, 0° - -
1788269460 22.22° C 5% 1010 hPa 0.25 mm 9.39 m/s, 180° - -
1788268860 21.11° C 5% 1010 hPa 0.25 mm 9.39 m/s, 180° - -
1788268260 20.56° C 5% 1010 hPa 0.25 mm 9.39 m/s, 180° - -
1788267660 20.56° C 5% 1010 hPa 0.25 mm 9.39 m/s, 180° - -
1788267060 21.11° C 5% 1010 hPa 0.25 mm 9.39 m/s, 180° - -
1788266467 20.56° C 5% 1010 hPa 0.25 mm 9.39 m/s, 180° - -
1788265260 20° C 5% 1010 hPa 0.25 mm 7.6 m/s, 290° - -
1788264660 20° C 5% 1010 hPa 0 mm 7.6 m/s, 290° - -

* Rain latest hour (hover to see other rain measurements)
** Current wind speed in m/s (hover to see current wind gust speed)